Latest Weather Observations for Longreach

IDQ60801

Issued at 7:12 am EST Wednesday 24 October 2018 (issued every 10 minutes, with the page automatically refreshed every 10 minutes)

About weather observations | Map of weather stations | Latest weather observations for QLD | Other Formats
Station Details ID: 036031 Name: LONGREACH AERO Lat: -23.44 Lon: 144.28 Height: 192.2 m
Data from the previous 72 hours. | See also: Recent months at Longreach
Date/Time
EST
Temp
°C
App
Temp
°C
Dew
Point
°C
Rel
Hum
%
Delta-T
°C
Wind Press
QNH
hPa
Press
MSL
hPa
Rain since
9am
mm
Dir  Spd
km/h
Gust
km/h
Spd
kts
Gust
kts
24/07:00am 26.2 25.4 14.0 47 7.3 ENE 11 15 6 8 1014.7 1013.7 0.0
24/06:30am 23.6 22.1 10.6 44 7.3 E 9 11 5 6 1014.2 1013.2 0.0
24/06:00am 21.6 19.8 8.1 42 7.1 NE 7 7 4 4 1013.6 1012.6 0.0
24/05:30am 22.4 20.9 9.2 43 7.1 ESE 7 11 4 6 1013.0 1012.0 0.0
24/05:00am 22.8 21.0 9.6 43 7.2 SE 9 11 5 6 1012.8 1011.8 0.0
24/04:30am 22.9 19.6 8.2 39 7.8 ESE 15 19 8 10 1012.3 1011.3 0.0
24/04:00am 23.5 21.7 9.5 41 7.7 SE 9 11 5 6 1011.9 1010.9 0.0
24/03:30am 23.3 20.6 9.0 40 7.7 E 13 13 7 7 1011.3 1010.3 0.0
24/03:00am 23.8 21.1 9.0 39 8.0 ENE 13 15 7 8 1011.1 1010.1 0.0
24/02:30am 24.5 22.2 8.9 37 8.5 ENE 11 13 6 7 1011.1 1010.1 0.0
24/02:00am 25.9 23.3 9.3 35 9.2 ENE 13 17 7 9 1011.2 1010.2 0.0
24/01:30am 25.1 23.3 8.1 34 9.2 NE 7 11 4 6 1011.3 1010.3 0.0
24/01:00am 26.3 23.1 8.3 32 9.8 NE 15 17 8 9 1011.2 1010.2 0.0
24/12:30am 25.8 22.6 8.3 33 9.5 NNE 15 17 8 9 1011.3 1010.3 0.0
24/12:00am 26.2 23.5 7.3 30 10.1 NNE 11 13 6 7 1011.5 1010.5 0.0
 
Date/Time
EST
Temp
°C
App
Temp
°C
Dew
Point
°C
Rel
Hum
%
Delta-T
°C
Wind Press
QNH
hPa
Press
MSL
hPa
Rain since
9am
mm
Dir  Spd
km/h
Gust
km/h
Spd
kts
Gust
kts
23/11:30pm 27.6 24.8 8.5 30 10.5 NE 13 15 7 8 1011.6 1010.6 0.0
23/11:00pm 28.7 25.9 8.4 28 11.2 NE 13 15 7 8 1011.7 1010.7 0.0
23/10:30pm 28.0 25.3 7.3 27 11.2 NNE 11 11 6 6 1011.8 1010.8 0.0
23/10:00pm 30.6 27.5 8.9 26 12.2 NE 15 17 8 9 1011.7 1010.7 0.0
23/09:30pm 31.2 28.1 8.8 25 12.6 ENE 15 17 8 9 1011.5 1010.5 0.0
23/09:00pm 31.5 28.2 7.9 23 13.1 ENE 15 17 8 9 1011.3 1010.3 0.0
23/08:30pm 32.3 28.8 7.2 21 13.8 NE 15 17 8 9 1011.1 1010.1 0.0
23/08:00pm 32.4 29.1 6.6 20 14.1 NNE 13 15 7 8 1010.7 1009.7 0.0
23/07:30pm 33.9 31.0 6.3 18 15.1 E 11 15 6 8 1010.4 1009.3 0.0
23/07:00pm 34.6 31.8 5.1 16 15.9 E 9 11 5 6 1009.9 1008.8 0.0
23/06:30pm 36.4 33.3 5.6 15 16.9 ESE 11 15 6 8 1009.4 1008.4 0.0
23/06:00pm 37.5 34.0 5.5 14 17.6 SE 13 19 7 10 1009.1 1008.1 0.0
23/05:30pm 37.8 34.1 4.7 13 18.0 SE 13 20 7 11 1008.8 1007.8 0.0
23/05:00pm 38.3 33.9 5.0 13 18.3 SE 17 26 9 14 1008.6 1007.6 0.0
23/04:30pm 38.3 34.7 5.0 13 18.3 SE 13 20 7 11 1008.4 1007.4 0.0
23/04:00pm 37.8 34.9 4.7 13 18.1 E 9 13 5 7 1008.3 1007.3 0.0
23/03:30pm 38.8 35.3 5.4 13 18.5 NE 13 22 7 12 1008.4 1007.4 0.0
23/03:00pm 38.8 35.8 4.3 12 18.8 ESE 9 15 5 8 1008.6 1007.6 0.0
23/02:30pm 38.6 34.3 5.3 13 18.4 SSW 17 28 9 15 1008.9 1007.9 0.0
23/02:00pm 38.4 34.4 5.1 13 18.3 S 15 20 8 11 1009.4 1008.4 0.0
23/01:30pm 38.8 35.9 6.5 14 18.2 W 11 17 6 9 1009.8 1008.7 0.0
23/01:00pm 38.1 34.7 6.0 14 17.9 NNW 13 22 7 12 1010.3 1009.2 0.0
23/12:30pm 37.3 34.5 5.3 14 17.5 SE 9 13 5 7 1011.0 1010.0 0.0
23/12:00pm 36.3 33.6 10.5 21 15.2 SE 15 20 8 11 1011.4 1010.4 0.0
23/11:30am 35.0 33.7 14.8 29 12.6 N 15 22 8 12 1011.9 1010.9 0.0
23/11:00am 34.8 34.6 15.7 32 12.1 NNE 11 19 6 10 1012.3 1011.3 0.0
23/10:30am 33.3 33.1 16.6 36 10.7 NNE 13 22 7 12 1012.6 1011.6 0.0
23/10:00am 32.5 31.7 17.2 40 9.8 N 17 26 9 14 1012.9 1011.9 0.0
23/09:30am 31.9 31.4 17.8 43 9.1 NNE 17 28 9 15 1012.9 1011.9 0.0
23/09:00am 30.2 28.8 16.9 44 8.4 NNE 20 30 11 16 1013.0 1012.0 0.0
23/08:30am 29.8 26.6 17.3 47 8.0 NNE 30 35 16 19 1012.9 1011.9 0.0
23/08:00am 28.5 24.8 17.4 51 7.1 NNE 33 39 18 21 1012.6 1011.6 0.0
23/07:30am 27.9 24.3 17.1 51 6.8 NE 32 39 17 21 1012.3 1011.3 0.0
23/07:00am 26.5 23.9 14.9 49 7.0 NE 22 28 12 15 1012.0 1011.0 0.0
23/06:30am 24.5 23.6 11.5 44 7.4 NE 7 13 4 7 1011.7 1010.7 0.0
23/06:00am 21.5 18.9 6.2 37 7.8 E 9 11 5 6 1011.2 1010.2 0.0
23/05:30am 20.5 17.3 3.3 32 8.2 ESE 9 9 5 5 1010.8 1009.8 0.0
23/05:00am 20.9 17.6 2.2 29 8.8 E 9 11 5 6 1010.3 1009.2 0.0
23/04:30am 21.6 18.3 2.3 28 9.1 ESE 9 17 5 9 1010.0 1008.9 0.0
23/04:00am 20.9 17.0 1.2 27 9.1 ESE 11 15 6 8 1009.9 1008.8 0.0
23/03:30am 23.0 18.9 2.5 26 9.8 SE 13 15 7 8 1009.5 1008.5 0.0
23/03:00am 19.9 16.7 -0.7 25 9.1 S 6 7 3 4 1009.3 1008.3 0.0
23/02:30am 23.1 19.3 1.5 24 10.2 SSE 11 11 6 6 1009.3 1008.3 0.0
23/02:00am 21.8 18.1 -0.2 23 9.9 S 9 11 5 6 1009.3 1008.3 0.0
23/01:30am 24.3 20.7 0.6 21 11.1 ESE 9 13 5 7 1009.8 1008.7 0.0
23/01:00am 25.0 19.9 0.5 20 11.5 SE 17 20 9 11 1010.0 1008.9 0.0
23/12:30am 25.6 22.0 0.3 19 11.9 S 9 15 5 8 1010.1 1009.0 0.0
23/12:00am 26.5 22.4 -0.5 17 12.6 S 11 15 6 8 1010.2 1009.1 0.0
 
Date/Time
EST
Temp
°C
App
Temp
°C
Dew
Point
°C
Rel
Hum
%
Delta-T
°C
Wind Press
QNH
hPa
Press
MSL
hPa
Rain since
9am
mm
Dir  Spd
km/h
Gust
km/h
Spd
kts
Gust
kts
22/11:30pm 27.7 22.6 0.5 17 13.0 SSW 17 20 9 11 1010.2 1009.1 0.0
22/11:00pm 29.0 24.7 0.7 16 13.7 SSW 13 17 7 9 1010.4 1009.3 0.0
22/10:30pm 27.7 23.7 0.5 17 13.0 SSW 11 15 6 8 1010.5 1009.4 0.0
22/10:00pm 28.4 24.4 0.2 16 13.5 SSW 11 13 6 7 1010.4 1009.3 0.0
22/09:30pm 29.3 24.8 0.0 15 14.0 S 13 15 7 8 1010.3 1009.2 0.0
22/09:00pm 29.7 25.3 0.3 15 14.2 SSW 13 17 7 9 1010.1 1009.0 0.0
22/08:30pm 30.2 26.6 0.7 15 14.4 S 9 13 5 7 1010.0 1008.9 0.0
22/08:00pm 30.6 26.5 0.1 14 14.8 SSW 11 13 6 7 1009.7 1008.6 0.0
22/07:30pm 32.0 27.8 -0.9 12 15.8 SSW 11 13 6 7 1009.2 1008.2 0.0
22/07:00pm 33.7 29.5 -0.8 11 16.8 S 11 13 6 7 1008.9 1007.9 0.0
22/06:30pm 34.7 31.0 -0.1 11 17.3 S 9 11 5 6 1008.6 1007.6 0.0
22/06:00pm 36.2 33.0 -0.2 10 18.2 WSW 6 11 3 6 1008.3 1007.3 0.0
22/05:30pm 36.6 32.7 -1.4 9 18.7 SSW 9 15 5 8 1008.1 1007.1 0.0
22/05:00pm 37.2 32.8 0.5 10 18.7 SSW 13 19 7 10 1007.9 1006.9 0.0
22/04:30pm 37.0 32.0 -1.1 9 18.9 S 15 28 8 15 1007.8 1006.8 0.0
22/04:00pm 37.3 31.8 0.6 10 18.8 S 19 30 10 16 1007.8 1006.8 0.0
22/03:30pm 37.3 33.7 0.6 10 18.7 WSW 9 15 5 8 1007.8 1006.8 0.0
22/03:00pm 37.2 32.1 0.5 10 18.7 S 17 30 9 16 1008.2 1007.2 0.0
22/02:30pm 37.6 32.1 0.8 10 18.9 SW 19 28 10 15 1008.5 1007.5 0.0
22/02:00pm 37.6 33.5 2.1 11 18.6 SW 13 20 7 11 1008.9 1007.9 0.0
22/01:30pm 37.1 32.9 1.8 11 18.3 SW 13 19 7 10 1009.2 1008.2 0.0
22/01:00pm 36.8 32.6 3.9 13 17.6 SW 15 26 8 14 1009.9 1008.8 0.0
22/12:30pm 36.4 32.2 3.6 13 17.4 SSW 15 22 8 12 1010.4 1009.3 0.0
22/12:00pm 36.1 32.8 6.3 16 16.5 WNW 13 24 7 13 1010.9 1009.9 0.0
22/11:30am 35.0 32.4 6.3 17 15.8 WSW 9 17 5 9 1011.5 1010.5 0.0
22/11:00am 34.8 32.8 7.0 18 15.5 NNW 7 15 4 8 1012.0 1011.0 0.0
22/10:30am 33.8 31.4 7.0 19 14.8 NE 9 15 5 8 1012.4 1011.4 0.0
22/10:00am 33.0 32.3 13.1 30 12.1 ENE 9 17 5 9 1012.6 1011.6 0.0
22/09:30am 31.5 30.8 13.3 33 11.0 E 9 15 5 8 1012.8 1011.8 0.0
22/09:00am 30.0 28.7 13.7 37 9.8 ESE 13 19 7 10 1012.9 1011.9 0.0
22/08:30am 28.7 26.9 13.4 39 9.2 ESE 15 22 8 12 1012.9 1011.9 0.0
22/08:00am 27.2 24.2 12.0 38 8.8 SE 19 26 10 14 1012.6 1011.6 0.0
22/07:30am 25.8 22.4 10.4 38 8.7 SE 19 26 10 14 1012.4 1011.4 0.0
22/07:00am 24.0 21.5 8.0 36 8.5 SSE 11 15 6 8 1012.4 1011.4 0.0
22/06:30am 22.0 20.6 5.4 34 8.3 SE 2 7 1 4 1011.9 1010.9 0.0
22/06:00am 20.4 17.0 4.0 34 8.0 S 11 13 6 7 1011.4 1010.4 0.0
22/05:30am 20.9 17.1 4.0 33 8.2 S 13 15 7 8 1011.0 1010.0 0.0
22/05:00am 20.7 17.2 3.4 32 8.3 S 11 13 6 7 1010.8 1009.8 0.0
22/04:30am 20.4 17.0 1.8 29 8.6 S 9 9 5 5 1010.6 1009.6 0.0
22/04:00am 21.1 17.7 1.9 28 9.0 S 9 11 5 6 1010.3 1009.2 0.0
22/03:30am 21.5 18.1 1.7 27 9.2 S 9 11 5 6 1010.1 1009.0 0.0
22/03:00am 22.1 18.3 1.7 26 9.6 S 11 11 6 6 1010.2 1009.1 0.0
22/02:30am 23.0 18.8 1.4 24 10.1 S 13 15 7 8 1010.2 1009.1 0.0
22/02:00am 23.7 18.7 1.4 23 10.5 S 17 19 9 10 1010.2 1009.1 0.0
22/01:30am 24.2 19.2 1.2 22 10.9 S 17 20 9 11 1010.5 1009.4 0.0
22/01:00am 24.9 19.4 0.4 20 11.5 SSE 19 24 10 13 1010.7 1009.7 0.0
22/12:30am 25.8 20.1 0.5 19 11.9 S 20 28 11 15 1010.9 1009.9 0.0
22/12:00am 25.7 19.7 -1.2 17 12.3 S 20 28 11 15 1011.2 1010.2 0.0
 
Date/Time
EST
Temp
°C
App
Temp
°C
Dew
Point
°C
Rel
Hum
%
Delta-T
°C
Wind Press
QNH
hPa
Press
MSL
hPa
Rain since
9am
mm
Dir  Spd
km/h
Gust
km/h
Spd
kts
Gust
kts
21/11:30pm 25.5 19.6 -2.1 16 12.4 S 19 22 10 12 1011.5 1010.5 0.0
21/11:00pm 25.5 20.4 -2.1 16 12.4 SSW 15 20 8 11 1011.6 1010.6 0.0
21/10:30pm 25.8 21.0 -2.8 15 12.7 SSW 13 17 7 9 1011.7 1010.7 0.0
21/10:00pm 26.4 21.6 -2.3 15 12.9 SSW 13 15 7 8 1011.7 1010.7 0.0
21/09:30pm 27.2 22.4 -2.6 14 13.4 SSW 13 15 7 8 1011.4 1010.4 0.0
21/09:00pm 28.0 23.3 -2.0 14 13.8 SW 13 15 7 8 1011.1 1010.1 0.0
21/08:30pm 28.8 24.4 -2.3 13 14.3 SW 11 15 6 8 1010.8 1009.8 0.0
21/08:00pm 30.4 25.3 -2.2 12 15.2 SSW 15 17 8 9 1010.4 1009.3 0.0
21/07:30pm 31.5 26.5 -1.3 12 15.6 SSW 15 19 8 10 1010.1 1009.0 0.0
21/07:00pm 32.2 27.8 0.3 13 15.7 SSW 13 17 7 9 1009.8 1008.7 0.0
21/06:30pm 33.7 29.3 0.4 12 16.6 SSW 13 19 7 10 1009.4 1008.4 0.0
21/06:00pm 35.1 29.7 -1.1 10 17.8 SSW 17 22 9 12 1009.1 1008.1 0.0
21/05:30pm 35.8 30.1 -0.5 10 18.0 SSW 19 28 10 15 1008.8 1007.8 0.0
21/05:00pm 36.1 30.5 -0.3 10 18.2 SSW 19 28 10 15 1008.6 1007.6 0.0
21/04:30pm 36.4 31.6 -0.1 10 18.3 SW 15 28 8 15 1008.4 1007.4 0.0
21/04:00pm 36.4 32.5 3.6 13 17.5 SW 13 26 7 14 1008.5 1007.5 0.0
21/03:30pm 37.3 33.4 5.3 14 17.5 WNW 15 26 8 14 1008.7 1007.7 0.0
21/03:00pm 36.0 32.5 5.3 15 16.7 SSW 13 26 7 14 1009.2 1008.2 0.0
21/02:30pm 36.0 31.7 7.1 17 16.2 SSW 19 28 10 15 1009.5 1008.5 0.0
21/02:00pm 35.7 31.8 6.9 17 16.1 SW 17 26 9 14 1010.1 1009.0 0.0
21/01:30pm 35.0 31.9 7.1 18 15.6 S 13 24 7 13 1010.8 1009.8 0.0
21/01:00pm 34.3 32.0 7.4 19 15.0 N 9 20 5 11 1011.4 1010.4 0.0
21/12:30pm 33.6 31.5 9.6 23 13.8 SSW 11 22 6 12 1011.9 1010.9 0.0
21/12:00pm 32.9 31.9 10.9 26 12.9 S 7 17 4 9 1012.5 1011.5 0.0
21/11:30am 32.1 30.6 11.8 29 12.0 ESE 11 15 6 8 1013.0 1012.0 0.0
21/11:00am 30.9 29.0 11.8 31 11.2 SSE 13 22 7 12 1013.5 1012.5 0.0
21/10:30am 30.5 28.4 12.4 33 10.7 SSE 15 24 8 13 1014.0 1013.0 0.0
21/10:00am 29.2 26.7 12.2 35 10.0 SSE 17 26 9 14 1014.3 1013.3 0.0
21/09:30am 28.2 25.1 11.7 36 9.6 SE 19 28 10 15 1014.3 1013.3 0.0
21/09:00am 27.6 24.2 11.2 36 9.4 SE 20 28 11 15 1014.5 1013.5 0.0
21/08:30am 26.3 22.5 11.2 38 8.6 SE 22 30 12 16 1014.5 1013.5 0.0
21/08:00am 25.3 20.8 10.0 38 8.5 SSE 24 32 13 17 1014.5 1013.5 0.0
21/07:30am 23.7 19.7 8.2 37 8.3 S 19 28 10 15 1014.3 1013.3 0.0

Other Formats:

Comma delimited format used in spreadsheet applications
http://www.bom.gov.au/fwo/IDQ60801/IDQ60801.94346.axf

JavaScript Object Notation format (JSON) in row-major order
http://www.bom.gov.au/fwo/IDQ60801/IDQ60801.94346.json